createdAt,value
2023-03-10T00:00:00.872Z,98201.91
2023-03-10T00:05:04.204Z,98192.06
2023-03-10T00:10:06.437Z,98196.50
2023-03-10T00:15:10.118Z,98190.25
2023-03-10T00:20:12.996Z,98187.16
2023-03-10T00:25:17.698Z,98196.97
2023-03-10T00:30:19.814Z,98199.28
2023-03-10T00:35:21.646Z,98192.56
2023-03-10T00:40:23.449Z,98189.06
2023-03-10T00:45:25.387Z,98194.81
2023-03-10T00:50:27.220Z,98196.25
2023-03-10T00:55:29.105Z,98187.75
2023-03-10T01:00:31.145Z,98200.09
2023-03-10T01:05:33.201Z,98198.75
2023-03-10T01:10:35.099Z,98189.16
2023-03-10T01:15:37.096Z,98189.66
2023-03-10T01:20:41.900Z,98194.81
2023-03-10T01:25:44.104Z,98183.41
2023-03-10T01:30:46.804Z,98182.31
2023-03-10T01:35:48.954Z,98178.59
2023-03-10T01:40:51.281Z,98172.09
2023-03-10T01:45:53.146Z,98162.84
2023-03-10T01:50:57.758Z,98157.56
2023-03-10T01:56:03.336Z,98150.81
2023-03-10T02:01:07.166Z,98144.06
2023-03-10T02:06:12.090Z,98146.28
2023-03-10T02:11:15.940Z,98134.09
2023-03-10T02:16:18.881Z,98142.91
2023-03-10T02:21:47.268Z,98126.19
2023-03-10T02:27:21.358Z,98126.06
2023-03-10T02:32:23.994Z,98111.50
2023-03-10T02:37:30.227Z,98108.03
2023-03-10T02:42:36.160Z,98110.88
2023-03-10T02:47:38.192Z,98108.25
2023-03-10T02:52:45.003Z,98098.66
2023-03-10T02:57:47.038Z,98097.19
2023-03-10T03:02:50.122Z,98090.63
2023-03-10T03:07:52.105Z,98089.97
2023-03-10T03:12:56.404Z,98087.31
2023-03-10T03:18:01.768Z,98088.19
2023-03-10T03:23:04.708Z,98067.03
2023-03-10T03:28:08.137Z,98079.97
2023-03-10T03:33:10.068Z,98074.09
2023-03-10T03:38:12.279Z,98064.00
2023-03-10T03:43:14.581Z,98071.94
2023-03-10T03:48:16.680Z,98063.31
2023-03-10T03:53:19.424Z,98065.44
2023-03-10T03:58:21.385Z,98057.50
2023-03-10T04:03:23.412Z,98059.19
2023-03-10T04:08:25.522Z,98046.22
2023-03-10T04:13:27.481Z,98042.13
2023-03-10T04:18:29.467Z,98047.19
2023-03-10T04:23:31.234Z,98047.53
2023-03-10T04:28:33.103Z,98041.25
2023-03-10T04:33:34.857Z,98042.84
2023-03-10T04:38:36.936Z,98037.44
2023-03-10T04:43:41.987Z,98026.25
2023-03-10T04:48:44.928Z,98032.63
2023-03-10T04:53:47.064Z,98044.75
2023-03-10T04:58:49.393Z,98041.06
2023-03-10T05:03:51.457Z,98042.03
2023-03-10T05:08:53.524Z,98035.00
2023-03-10T05:13:55.734Z,98032.75
2023-03-10T05:18:57.871Z,98027.69
2023-03-10T05:24:00.604Z,98028.88
2023-03-10T05:29:03.013Z,98024.31
2023-03-10T05:34:05.087Z,98035.13
2023-03-10T05:39:07.515Z,98028.03
2023-03-10T05:44:10.517Z,98029.63
2023-03-10T05:49:12.499Z,98029.72
2023-03-10T05:54:15.113Z,98035.72
2023-03-10T05:59:17.625Z,98046.09
2023-03-10T06:04:19.546Z,98036.28
2023-03-10T06:09:21.417Z,98030.63
2023-03-10T06:14:24.042Z,98033.06
2023-03-10T06:19:26.790Z,98034.31
2023-03-10T06:24:29.992Z,98042.34
2023-03-10T06:29:32.021Z,98033.69
2023-03-10T06:34:34.073Z,98027.69
2023-03-10T06:39:38.921Z,98023.50
2023-03-10T06:44:40.898Z,98032.44
2023-03-10T06:49:42.938Z,98030.81
2023-03-10T06:54:44.879Z,98027.69
2023-03-10T06:59:46.964Z,98042.22
2023-03-10T07:04:49.255Z,98037.66
2023-03-10T07:09:51.112Z,98042.34
2023-03-10T07:14:53.091Z,98036.69
2023-03-10T07:19:55.043Z,98036.94
2023-03-10T07:24:57.038Z,98041.41
2023-03-10T07:29:58.832Z,98039.19
2023-03-10T07:35:00.799Z,98041.41
2023-03-10T07:40:02.811Z,98050.56
2023-03-10T07:45:05.537Z,98065.25
2023-03-10T07:50:08.061Z,98063.28
2023-03-10T07:55:10.218Z,98064.22
2023-03-10T08:00:12.873Z,98072.16
2023-03-10T08:05:15.303Z,98066.41
2023-03-10T08:10:18.890Z,98082.53
2023-03-10T08:15:21.117Z,98077.03
2023-03-10T08:20:23.091Z,98075.78
2023-03-10T08:25:25.054Z,98083.22
2023-03-10T08:30:27.135Z,98085.38
2023-03-10T08:35:28.956Z,98080.59
2023-03-10T08:40:31.472Z,98083.03
2023-03-10T08:45:33.492Z,98074.97
2023-03-10T08:50:35.288Z,98074.56
2023-03-10T08:55:37.317Z,98073.88
2023-03-10T09:00:39.252Z,98076.72
2023-03-10T09:05:41.446Z,98074.69
2023-03-10T09:10:45.227Z,98071.59
2023-03-10T09:15:47.251Z,98065.03
2023-03-10T09:20:49.644Z,98066.81
2023-03-10T09:25:51.542Z,98068.75
2023-03-10T09:30:56.366Z,98066.63
2023-03-10T09:36:08.334Z,98078.28
2023-03-10T09:41:33.858Z,98084.72
2023-03-10T09:46:46.348Z,98073.16
2023-03-10T09:51:52.722Z,98081.09
2023-03-10T09:56:59.266Z,98071.03
2023-03-10T10:02:03.624Z,98075.41
2023-03-10T10:07:15.425Z,98079.59
2023-03-10T10:12:23.833Z,98082.28
2023-03-10T10:18:00.621Z,98095.03
2023-03-10T10:23:27.381Z,98102.47
2023-03-10T10:28:42.115Z,98105.38
2023-03-10T10:34:00.714Z,98095.56
2023-03-10T10:39:04.819Z,98099.03
2023-03-10T10:44:09.696Z,98103.38
2023-03-10T10:49:28.242Z,98092.41
2023-03-10T10:54:39.347Z,98080.50
2023-03-10T10:59:41.249Z,98070.19
2023-03-10T11:04:46.298Z,98074.72
2023-03-10T11:09:48.446Z,98065.56
2023-03-10T11:15:11.767Z,98064.56
2023-03-10T11:20:38.257Z,98078.59
2023-03-10T11:25:49.534Z,98081.03
2023-03-10T11:31:02.169Z,98071.38
2023-03-10T11:36:30.953Z,98076.97
2023-03-10T11:41:37.734Z,98060.00
2023-03-10T11:46:45.504Z,98043.91
2023-03-10T11:51:53.266Z,98052.53
2023-03-10T11:56:56.475Z,98043.75
2023-03-10T12:02:06.575Z,98036.78
2023-03-10T12:07:16.049Z,98045.06
2023-03-10T12:12:26.350Z,98038.78
2023-03-10T12:17:29.085Z,98041.28
2023-03-10T12:22:42.275Z,98041.75
2023-03-10T12:28:16.438Z,98048.84
2023-03-10T12:33:42.528Z,98053.28
2023-03-10T12:38:54.309Z,98038.38
2023-03-10T12:44:07.647Z,98028.50
2023-03-10T12:49:43.521Z,98042.34
2023-03-10T12:54:49.960Z,98072.88
2023-03-10T13:00:17.001Z,98083.97
2023-03-10T13:05:29.785Z,98079.41
2023-03-10T13:10:33.636Z,98071.81
2023-03-10T13:15:36.129Z,98068.97
2023-03-10T13:20:38.311Z,98099.88
2023-03-10T13:25:51.762Z,98106.97
2023-03-10T13:31:12.491Z,98128.50
2023-03-10T13:36:37.794Z,98154.38
2023-03-10T13:41:41.937Z,98156.16
2023-03-10T13:46:51.364Z,98170.81
2023-03-10T13:51:54.659Z,98194.25
2023-03-10T13:57:26.330Z,98204.34
2023-03-10T14:02:32.918Z,98229.53
2023-03-10T14:07:39.031Z,98215.78
2023-03-10T14:12:41.993Z,98250.75
2023-03-10T14:17:46.715Z,98246.59
2023-03-10T14:22:48.518Z,98250.56
2023-03-10T14:27:57.596Z,98247.22
2023-03-10T14:33:01.265Z,98265.28
2023-03-10T14:38:03.031Z,98267.66
2023-03-10T14:43:05.055Z,98273.06
2023-03-10T14:48:19.057Z,98300.59
2023-03-10T14:53:24.726Z,98305.72
2023-03-10T14:58:31.666Z,98305.47
2023-03-10T15:03:33.695Z,98302.72
2023-03-10T15:08:35.821Z,98316.28
2023-03-10T15:13:38.835Z,98311.00
2023-03-10T15:18:40.709Z,98314.22
2023-03-10T15:23:42.636Z,98319.31
2023-03-10T15:28:44.933Z,98389.94
2023-03-10T15:33:46.792Z,98435.19
2023-03-10T15:38:49.205Z,98485.50
2023-03-10T15:43:51.455Z,98566.06
2023-03-10T15:48:53.427Z,98612.41
2023-03-10T15:53:55.657Z,98633.53
2023-03-10T15:58:57.701Z,98690.56
2023-03-10T16:04:01.955Z,98761.97
2023-03-10T16:09:05.608Z,98780.66
2023-03-10T16:14:08.822Z,98826.16
2023-03-10T16:19:10.652Z,98869.84
2023-03-10T16:24:12.844Z,98901.44
2023-03-10T16:29:15.270Z,98984.16
2023-03-10T16:34:17.039Z,99012.41
2023-03-10T16:39:19.023Z,99035.81
2023-03-10T16:44:21.118Z,99078.16
2023-03-10T16:49:23.178Z,99083.03
2023-03-10T16:54:25.152Z,99136.72
2023-03-10T16:59:28.054Z,99155.03
2023-03-10T17:04:29.976Z,99185.22
2023-03-10T17:09:31.894Z,99210.50
2023-03-10T17:14:33.724Z,99225.66
2023-03-10T17:19:35.732Z,99263.81
2023-03-10T17:24:37.665Z,99291.81
2023-03-10T17:29:39.701Z,99320.09
2023-03-10T17:34:42.043Z,99341.81
2023-03-10T17:39:48.424Z,99369.81
2023-03-10T17:44:50.338Z,99388.56
2023-03-10T17:49:52.385Z,99416.06
2023-03-10T17:54:54.232Z,99429.31
2023-03-10T17:59:56.692Z,99446.41
2023-03-10T18:04:58.593Z,99473.81
2023-03-10T18:10:00.740Z,99497.28
2023-03-10T18:15:02.678Z,99509.97
2023-03-10T18:20:06.774Z,99536.06
2023-03-10T18:25:08.893Z,99549.19
2023-03-10T18:30:12.553Z,99551.75
2023-03-10T18:35:14.637Z,99554.09
2023-03-10T18:40:17.344Z,99569.50
2023-03-10T18:45:19.400Z,99590.25
2023-03-10T18:50:21.635Z,99589.69
2023-03-10T18:55:23.733Z,99585.63
2023-03-10T19:00:26.405Z,99609.69
2023-03-10T19:05:28.414Z,99620.75
2023-03-10T19:10:30.560Z,99627.44
2023-03-10T19:15:32.326Z,99635.25
2023-03-10T19:20:33.981Z,99647.53
2023-03-10T19:25:36.608Z,99663.63
2023-03-10T19:30:43.026Z,99684.25
2023-03-10T19:35:45.479Z,99709.50
2023-03-10T19:40:47.776Z,99699.09
2023-03-10T19:45:49.989Z,99718.19
2023-03-10T19:50:56.015Z,99724.03
2023-03-10T19:56:04.278Z,99748.03
2023-03-10T20:01:11.939Z,99755.31
2023-03-10T20:06:13.970Z,99758.25
2023-03-10T20:11:16.847Z,99768.59
2023-03-10T20:16:20.416Z,99782.97
2023-03-10T20:21:22.440Z,99788.34
2023-03-10T20:26:24.953Z,99796.44
2023-03-10T20:31:28.541Z,99818.31
2023-03-10T20:36:31.327Z,99813.09
2023-03-10T20:41:33.405Z,99835.56
2023-03-10T20:46:36.258Z,99841.91
2023-03-10T20:51:40.271Z,99842.66
2023-03-10T20:56:42.204Z,99850.28
2023-03-10T21:01:44.180Z,99874.25
2023-03-10T21:06:47.422Z,99869.03
2023-03-10T21:11:49.684Z,99868.25
2023-03-10T21:16:51.973Z,99869.22
2023-03-10T21:21:54.072Z,99873.56
2023-03-10T21:26:56.431Z,99882.56
2023-03-10T21:31:58.469Z,99900.25
2023-03-10T21:37:00.556Z,99922.94
2023-03-10T21:42:02.428Z,99932.63
2023-03-10T21:47:04.736Z,99933.03
2023-03-10T21:52:07.097Z,99941.28
2023-03-10T21:57:09.138Z,99943.16
2023-03-10T22:02:24.911Z,99952.00
2023-03-10T22:07:26.744Z,99971.19
2023-03-10T22:12:28.594Z,99974.75
2023-03-10T22:17:30.743Z,99980.41
2023-03-10T22:22:32.953Z,99983.06
2023-03-10T22:27:34.812Z,99994.94
2023-03-10T22:32:36.880Z,99989.13
2023-03-10T22:37:39.690Z,99999.03
2023-03-10T22:42:42.105Z,100004.25
2023-03-10T22:47:44.239Z,100002.44
2023-03-10T22:52:46.234Z,100006.03
2023-03-10T22:57:48.084Z,100007.91
2023-03-10T23:02:52.400Z,100013.88
2023-03-10T23:07:54.713Z,100026.97
2023-03-10T23:12:59.529Z,100036.00
2023-03-10T23:18:01.650Z,100033.44
2023-03-10T23:23:05.520Z,100042.34
2023-03-10T23:28:08.965Z,100040.34
2023-03-10T23:33:16.855Z,100055.63
2023-03-10T23:38:18.687Z,100065.28
2023-03-10T23:43:20.593Z,100068.69
2023-03-10T23:48:25.049Z,100070.66
2023-03-10T23:53:28.787Z,100082.88
2023-03-10T23:58:30.874Z,100076.75
